Glasgow, MT (59230)

8:45 AM MST on December 03, 2016 (GMT -0700)
APRSWXNET | | Change Station

Elev 2211 ft 48.19 °N, 106.61 °W | Updated 21 minutes ago

Overcast
Overcast
32 °F
Feels Like 32 °F
N
3
Wind Variable Wind from South
Gusts 3.0 mph

Today
High -- | Low -- °F
--% Chance of Precip.
Yesterday
High -- | Low -- °F
Precip. -- in
Pressure 29.83 in
Visibility 10.0 miles
Clouds Overcast 7500 ft
Windchill 32 °F
Dew Point 29 °F
Humidity 88%
Rainfall in
Snow Depth Not available.
7:39 AM 4:13 PM
Waxing Crescent, 15% visible
METAR KGGW 031453Z AUTO 19009KT 10SM OVC075 00/M02 A2975 RMK AO2 SLP102 T00001022 56010
Pressure 29.83 in
Visibility 10.0 miles
Clouds Overcast 7500 ft
Windchill 32 °F
Dew Point 29 °F
Humidity 88%
Rainfall in
Snow Depth Not available.
7:39 AM 4:13 PM
Waxing Crescent, 15% visible
METAR KGGW 031453Z AUTO 19009KT 10SM OVC075 00/M02 A2975 RMK AO2 SLP102 T00001022 56010

10-Day Weather Forecast

Almanac

Astronomy

Dec. 03, 2016 Rise Set
Actual Time
Civil Twilight
Nautical Twilight
Astronomical Twilight
Moon
Length of Visible Light
Length of Day
Tomorrow will be .
, % of the Moon is Illuminated

Today's Extremes

State Highs State Lows

Community

WunderPhotos

Upload Photos

1,955,427 photos uploaded!

WunderBlog® & News

Nearby

Air Quality

  Air Quality AQ Index Pollutant
Not available.

Snow Depth

Station Depth Elevation

Earthquake Activity

City Distance Mag. Time & Date
Minimum magnitude displayed is 2.5.

Coastal Water Temperatures

Place Temperature

Stations

Nearby Weather Stations

Station Location Temp. Windchill Dew Point Humidity Wind Precip. Elev Updated Type
                   

Watches & Warnings

There are currently no watches in effect.